Time;durP1;ratioP1;P1;durP2;ratioP2;P2;SDS_P1;SDS_P2;PMS_P1;PMS_P2;Temp;Humidity;BMP_temperature;BMP_pressure;BME280_temperature;BME280_humidity;BME280_pressure;Samples;Min_cycle;Max_cycle;Signal;HPM_P1;HPM_P2
2023/05/03 00:02:03;;;;;;;3.28;2.97;;;17.20;1.00;;;;;;5031867;28;20111;-60
2023/05/03 00:04:30;;;;;;;3.10;2.90;;;17.20;1.00;;;;;;5031616;28;20034;-60
2023/05/03 00:06:56;;;;;;;2.92;2.67;;;17.20;1.00;;;;;;5032143;28;20045;-60
2023/05/03 00:09:22;;;;;;;3.03;2.83;;;17.10;1.00;;;;;;5032641;28;20025;-60
2023/05/03 00:11:48;;;;;;;3.20;2.72;;;17.20;1.00;;;;;;5030876;28;20033;-60
2023/05/03 00:14:14;;;;;;;2.83;2.63;;;17.10;1.00;;;;;;5032807;28;20029;-60
2023/05/03 00:16:39;;;;;;;2.85;2.65;;;17.10;1.00;;;;;;5032010;28;20475;-60
2023/05/03 00:19:05;;;;;;;3.40;3.10;;;17.10;1.00;;;;;;5031845;28;20045;-60
2023/05/03 00:21:31;;;;;;;2.80;2.60;;;17.10;1.00;;;;;;5032589;28;20061;-60
2023/05/03 00:23:57;;;;;;;3.30;3.00;;;17.10;1.00;;;;;;5032147;28;20029;-60
2023/05/03 00:26:22;;;;;;;5.28;3.63;;;17.00;1.00;;;;;;5031706;28;20021;-60
2023/05/03 00:28:48;;;;;;;3.55;3.25;;;17.10;1.00;;;;;;5033774;28;20445;-60
2023/05/03 00:31:14;;;;;;;3.03;2.83;;;17.10;1.00;;;;;;5036585;28;20378;-60
2023/05/03 00:33:40;;;;;;;4.47;4.07;;;17.10;1.00;;;;;;5035022;28;20491;-60
2023/05/03 00:36:10;;;;;;;4.43;4.03;;;17.10;1.00;;;;;;5035794;28;20484;-60
2023/05/03 00:38:36;;;;;;;3.88;3.40;;;17.10;1.00;;;;;;5050131;28;20053;-60
2023/05/03 00:41:03;;;;;;;4.22;3.83;;;17.00;1.00;;;;;;5035709;28;20147;-61
2023/05/03 00:43:29;;;;;;;5.55;4.20;;;16.90;1.00;;;;;;5036506;28;20045;-60
2023/05/03 00:45:55;;;;;;;4.38;3.95;;;17.00;1.00;;;;;;5035529;28;20107;-60
2023/05/03 00:48:21;;;;;;;3.63;3.38;;;17.00;1.00;;;;;;5034381;28;20088;-60
2023/05/03 00:50:48;;;;;;;4.20;3.78;;;16.90;1.00;;;;;;5036195;28;20022;-60
2023/05/03 00:53:14;;;;;;;3.75;3.45;;;16.90;1.00;;;;;;5034656;28;20030;-60
2023/05/03 00:55:40;;;;;;;3.83;3.53;;;16.90;1.00;;;;;;5034686;28;20037;-60
2023/05/03 00:58:06;;;;;;;3.95;3.63;;;16.80;1.00;;;;;;5031007;28;20060;-60
2023/05/03 01:00:32;;;;;;;4.18;3.85;;;16.80;1.00;;;;;;5035147;28;20487;-60
2023/05/03 01:02:58;;;;;;;3.65;3.28;;;16.80;1.00;;;;;;5034849;28;20460;-60
2023/05/03 01:05:27;;;;;;;4.82;4.13;;;16.80;1.00;;;;;;5034977;28;20041;-60
2023/05/03 01:08:10;;;;;;;4.57;3.90;;;16.80;1.00;;;;;;5034945;28;20025;-60
2023/05/03 01:10:54;;;;;;;4.45;3.53;;;16.70;1.00;;;;;;5035885;28;20108;-60
2023/05/03 01:13:35;;;;;;;4.28;3.80;;;16.70;1.00;;;;;;5035333;28;20100;-59
2023/05/03 01:16:22;;;;;;;3.70;3.40;;;16.70;1.00;;;;;;5034763;28;20030;-60
2023/05/03 01:18:49;;;;;;;4.45;3.60;;;16.60;1.00;;;;;;5035520;28;20043;-60
2023/05/03 01:21:20;;;;;;;3.92;3.53;;;16.60;1.00;;;;;;5035268;28;20033;-60
2023/05/03 01:23:53;;;;;;;3.60;3.30;;;16.60;1.00;;;;;;5067423;28;20029;-60
2023/05/03 01:26:20;;;;;;;3.47;3.17;;;16.60;1.00;;;;;;5033904;28;20036;-60
2023/05/03 01:28:46;;;;;;;3.53;3.22;;;16.60;1.00;;;;;;5035352;28;20018;-60
2023/05/03 01:31:34;;;;;;;3.60;3.30;;;16.50;1.00;;;;;;5034828;28;20047;-60
2023/05/03 01:34:16;;;;;;;3.65;3.33;;;16.40;1.00;;;;;;5035315;28;20099;-60
2023/05/03 01:36:43;;;;;;;4.38;3.28;;;16.40;1.00;;;;;;5033477;28;20037;-60
2023/05/03 01:39:15;;;;;;;3.97;3.65;;;16.40;1.00;;;;;;5033345;28;20095;-60
2023/05/03 01:41:41;;;;;;;3.60;3.30;;;16.40;1.00;;;;;;5032715;28;20491;-60
2023/05/03 01:44:10;;;;;;;4.75;3.78;;;16.40;1.00;;;;;;5033268;28;20049;-61
2023/05/03 01:46:42;;;;;;;3.85;3.45;;;16.40;1.00;;;;;;5033754;28;20110;-60
2023/05/03 01:49:08;;;;;;;3.95;3.55;;;16.40;1.00;;;;;;5035020;28;20037;-60
2023/05/03 01:51:33;;;;;;;3.88;3.58;;;16.40;1.00;;;;;;5034384;28;20034;-60
2023/05/03 01:53:59;;;;;;;3.58;3.25;;;16.40;1.00;;;;;;5035191;28;20029;-60
2023/05/03 01:56:25;;;;;;;3.67;3.38;;;16.40;1.00;;;;;;5033049;28;20021;-60
2023/05/03 01:58:51;;;;;;;3.45;3.15;;;16.40;1.00;;;;;;5034837;28;20044;-60
2023/05/03 02:01:17;;;;;;;3.85;3.45;;;16.40;1.00;;;;;;5032537;28;20033;-60
2023/05/03 02:03:42;;;;;;;3.40;3.10;;;16.50;1.00;;;;;;5035139;28;20387;-60
2023/05/03 02:06:08;;;;;;;4.05;3.58;;;16.50;1.00;;;;;;5034157;28;20030;-60
2023/05/03 02:08:34;;;;;;;3.35;3.03;;;16.40;1.00;;;;;;5033940;28;20053;-60
2023/05/03 02:11:00;;;;;;;5.38;3.38;;;16.40;1.00;;;;;;5033976;28;20391;-60
2023/05/03 02:13:25;;;;;;;3.85;3.33;;;16.40;1.00;;;;;;5034566;28;20034;-60
2023/05/03 02:15:51;;;;;;;3.40;3.20;;;16.40;1.00;;;;;;5034551;28;20387;-61
2023/05/03 02:18:17;;;;;;;4.10;3.70;;;16.40;1.00;;;;;;5033164;28;20077;-60
2023/05/03 02:20:45;;;;;;;3.92;3.53;;;16.40;1.00;;;;;;5034017;28;20391;-60
2023/05/03 02:23:12;;;;;;;4.28;3.88;;;16.40;1.00;;;;;;5034144;28;20064;-60
2023/05/03 02:25:38;;;;;;;5.55;3.95;;;16.40;1.00;;;;;;5034422;28;20033;-60
2023/05/03 02:28:04;;;;;;;4.78;3.67;;;16.40;1.00;;;;;;5033426;28;20035;-60
2023/05/03 02:30:29;;;;;;;4.53;3.72;;;16.40;1.00;;;;;;5034457;28;20033;-60
2023/05/03 02:32:55;;;;;;;3.80;3.50;;;16.40;1.00;;;;;;5033485;28;20029;-60
2023/05/03 02:35:21;;;;;;;3.75;3.45;;;16.40;1.00;;;;;;5034145;28;20040;-60
2023/05/03 02:37:47;;;;;;;3.92;3.60;;;16.40;1.00;;;;;;5032403;28;20042;-60
2023/05/03 02:40:12;;;;;;;3.97;3.67;;;16.40;1.00;;;;;;5033248;28;20114;-60
2023/05/03 02:42:39;;;;;;;3.97;3.58;;;16.40;1.00;;;;;;5028773;28;20384;-59
2023/05/03 02:45:05;;;;;;;4.15;3.75;;;16.40;1.00;;;;;;5033990;28;20025;-60
2023/05/03 02:47:31;;;;;;;3.35;3.05;;;16.50;1.00;;;;;;5030956;28;20068;-60
2023/05/03 02:49:56;;;;;;;3.42;3.05;;;16.40;1.00;;;;;;5034317;28;20411;-60
2023/05/03 02:52:22;;;;;;;3.33;3.03;;;16.40;1.00;;;;;;5032939;28;20080;-60
2023/05/03 02:54:48;;;;;;;4.03;3.53;;;16.40;1.00;;;;;;5033866;28;20029;-60
2023/05/03 02:57:14;;;;;;;4.40;3.58;;;16.40;1.00;;;;;;5033045;28;20029;-60
2023/05/03 02:59:40;;;;;;;3.78;3.38;;;16.40;1.00;;;;;;5034022;28;20082;-60
2023/05/03 03:02:06;;;;;;;4.60;3.75;;;16.40;1.00;;;;;;5031489;28;20032;-60
2023/05/03 03:04:31;;;;;;;3.53;3.22;;;16.30;1.00;;;;;;5033290;28;20025;-60
2023/05/03 03:06:57;;;;;;;4.28;3.72;;;16.30;1.00;;;;;;5033287;28;20494;-60
2023/05/03 03:09:23;;;;;;;4.10;3.50;;;16.30;1.00;;;;;;5030489;28;20033;-60
2023/05/03 03:11:51;;;;;;;3.60;3.30;;;16.40;1.00;;;;;;5032082;28;20033;-60
2023/05/03 03:14:17;;;;;;;3.75;3.45;;;16.30;1.00;;;;;;5032682;28;20021;-60
2023/05/03 03:16:44;;;;;;;4.55;3.72;;;16.40;1.00;;;;;;5031730;28;20035;-60
2023/05/03 03:19:09;;;;;;;4.70;3.42;;;16.30;1.00;;;;;;5032395;28;20037;-60
2023/05/03 03:21:36;;;;;;;4.28;3.72;;;16.30;1.00;;;;;;5033285;28;20104;-59
2023/05/03 03:24:02;;;;;;;4.30;3.72;;;16.30;1.00;;;;;;5031661;28;20053;-59
2023/05/03 03:26:28;;;;;;;4.00;3.60;;;16.30;1.00;;;;;;5032246;28;20092;-59
2023/05/03 03:28:54;;;;;;;4.10;3.78;;;16.40;1.00;;;;;;5031837;28;20045;-60
2023/05/03 03:31:21;;;;;;;3.40;3.20;;;16.30;1.00;;;;;;5033080;28;20391;-60
2023/05/03 03:33:48;;;;;;;3.15;2.85;;;16.30;1.00;;;;;;5032493;28;20471;-59
2023/05/03 03:36:14;;;;;;;5.22;3.53;;;16.20;1.00;;;;;;5032268;28;20422;-60
2023/05/03 03:38:40;;;;;;;3.90;3.60;;;16.20;1.00;;;;;;5030275;28;20049;-60
2023/05/03 03:41:06;;;;;;;3.20;2.90;;;16.20;1.00;;;;;;5032973;28;20067;-60
2023/05/03 03:43:32;;;;;;;3.08;2.78;;;16.10;1.00;;;;;;5032386;28;20037;-60
2023/05/03 03:45:58;;;;;;;3.60;3.30;;;16.10;1.00;;;;;;5033091;28;20361;-60
2023/05/03 03:48:24;;;;;;;3.17;2.90;;;16.00;1.00;;;;;;5044358;28;20025;-60
2023/05/03 03:50:50;;;;;;;3.55;3.25;;;16.00;1.00;;;;;;5031114;28;20026;-60
2023/05/03 03:53:15;;;;;;;3.22;2.92;;;16.00;1.00;;;;;;5032935;28;20483;-60
2023/05/03 03:55:41;;;;;;;3.63;2.78;;;16.00;1.00;;;;;;5032930;28;20021;-60
2023/05/03 03:58:07;;;;;;;2.50;2.30;;;16.00;1.00;;;;;;5031853;28;20034;-60
2023/05/03 04:00:35;;;;;;;4.05;2.67;;;15.90;1.00;;;;;;5032005;28;20022;-60
2023/05/03 04:03:00;;;;;;;3.20;2.75;;;16.00;1.00;;;;;;5030805;28;20033;-60
2023/05/03 04:05:26;;;;;;;3.28;2.97;;;16.00;1.00;;;;;;5032844;28;20022;-60
2023/05/03 04:07:51;;;;;;;4.47;2.80;;;16.00;1.00;;;;;;5031261;28;20542;-60
2023/05/03 04:10:17;;;;;;;2.97;2.78;;;15.90;1.00;;;;;;5032055;28;20070;-60
2023/05/03 04:12:43;;;;;;;3.22;2.95;;;16.00;1.00;;;;;;5032544;28;20503;-60
2023/05/03 04:15:10;;;;;;;3.20;2.90;;;16.00;1.00;;;;;;5032704;28;20028;-60
2023/05/03 04:17:35;;;;;;;3.30;3.00;;;16.00;1.00;;;;;;5031906;28;20041;-59
2023/05/03 04:20:09;;;;;;;3.40;3.10;;;15.90;1.00;;;;;;5034462;28;20026;-59
2023/05/03 04:22:38;;;;;;;3.53;3.30;;;15.90;1.00;;;;;;5035399;28;20022;-59
2023/05/03 04:25:04;;;;;;;3.97;3.58;;;15.90;1.00;;;;;;5032548;28;20502;-59
2023/05/03 04:27:31;;;;;;;3.22;2.92;;;15.90;1.00;;;;;;5030831;28;20033;-59
2023/05/03 04:29:58;;;;;;;3.50;3.20;;;15.90;1.00;;;;;;5032491;28;20025;-59
2023/05/03 04:32:24;;;;;;;3.65;3.30;;;15.90;1.00;;;;;;5031141;28;20040;-59
2023/05/03 04:34:51;;;;;;;3.92;2.92;;;15.90;1.00;;;;;;5032401;28;20472;-59
2023/05/03 04:37:18;;;;;;;4.13;3.30;;;15.90;1.00;;;;;;5032457;28;20483;-59
2023/05/03 04:39:44;;;;;;;4.00;3.58;;;15.90;1.00;;;;;;5030245;28;20107;-59
2023/05/03 04:42:14;;;;;;;4.18;3.20;;;15.80;1.00;;;;;;5030960;28;20052;-59
2023/05/03 04:44:43;;;;;;;3.97;3.35;;;15.90;1.00;;;;;;5031174;28;20033;-59
2023/05/03 04:47:09;;;;;;;3.53;3.22;;;15.80;1.00;;;;;;5032444;28;20018;-59
2023/05/03 04:49:34;;;;;;;4.03;3.50;;;15.80;1.00;;;;;;5031774;28;20204;-59
2023/05/03 04:52:00;;;;;;;3.53;3.22;;;15.90;1.00;;;;;;5032517;28;20476;-59
2023/05/03 04:54:26;;;;;;;3.65;2.90;;;15.80;1.00;;;;;;5031660;28;20022;-59
2023/05/03 04:56:53;;;;;;;2.67;2.03;;;15.80;1.00;;;;;;5030555;28;20022;-59
2023/05/03 04:59:19;;;;;;;3.50;2.70;;;15.80;1.00;;;;;;5031959;28;20033;-59
2023/05/03 05:01:45;;;;;;;2.42;2.22;;;15.80;1.00;;;;;;5025523;28;20030;-59
2023/05/03 05:04:11;;;;;;;2.67;2.47;;;15.80;1.00;;;;;;5032329;28;20048;-59
2023/05/03 05:06:37;;;;;;;3.05;2.50;;;15.90;1.00;;;;;;5031464;28;20030;-59
2023/05/03 05:09:06;;;;;;;3.70;2.13;;;15.90;1.00;;;;;;5032125;28;20021;-59
2023/05/03 05:11:32;;;;;;;2.78;2.47;;;15.90;1.00;;;;;;5030094;28;20022;-59
2023/05/03 05:13:58;;;;;;;2.20;2.00;;;15.90;1.00;;;;;;5030563;28;20025;-59
2023/05/03 05:16:23;;;;;;;2.15;1.95;;;15.90;1.00;;;;;;5030723;28;20368;-59
2023/05/03 05:18:49;;;;;;;2.47;2.22;;;15.80;1.00;;;;;;5020156;28;20068;-59
2023/05/03 05:21:15;;;;;;;2.92;2.63;;;15.90;1.00;;;;;;5045154;28;20028;-59
2023/05/03 05:23:40;;;;;;;2.60;2.40;;;15.90;1.00;;;;;;5036111;28;20025;-60
2023/05/03 05:26:06;;;;;;;2.50;2.30;;;15.90;1.00;;;;;;5031756;28;20484;-59
2023/05/03 05:28:32;;;;;;;3.25;2.40;;;15.90;1.00;;;;;;5032989;28;20442;-59
2023/05/03 05:30:57;;;;;;;2.95;2.75;;;16.00;1.00;;;;;;5032518;28;20471;-59
2023/05/03 05:33:23;;;;;;;3.28;2.50;;;16.00;1.00;;;;;;5033808;28;20029;-59
2023/05/03 05:35:49;;;;;;;3.05;2.75;;;16.00;1.00;;;;;;5028528;28;20022;-59
2023/05/03 05:38:18;;;;;;;4.05;3.00;;;16.00;1.00;;;;;;5033695;28;20041;-59
2023/05/03 05:40:44;;;;;;;4.25;3.05;;;16.00;1.00;;;;;;5033023;28;20029;-60
2023/05/03 05:43:10;;;;;;;3.72;2.70;;;16.00;1.00;;;;;;5031291;28;20036;-59
2023/05/03 05:45:35;;;;;;;3.30;2.75;;;16.00;1.00;;;;;;5035180;28;20471;-59
2023/05/03 05:48:01;;;;;;;3.05;2.75;;;16.00;1.00;;;;;;5034791;28;20425;-59
2023/05/03 05:50:27;;;;;;;3.20;2.42;;;16.00;1.00;;;;;;5035090;28;20487;-59
2023/05/03 05:52:53;;;;;;;3.00;2.67;;;16.10;1.00;;;;;;5033163;28;20483;-59
2023/05/03 05:55:18;;;;;;;2.80;2.60;;;16.00;1.00;;;;;;5035281;28;20487;-59
2023/05/03 05:57:45;;;;;;;3.75;3.38;;;16.00;1.00;;;;;;5033346;28;20039;-59
2023/05/03 06:00:14;;;;;;;3.67;3.15;;;16.00;1.00;;;;;;5033954;28;20026;-59
2023/05/03 06:02:40;;;;;;;2.95;2.75;;;16.10;1.00;;;;;;5033089;28;20029;-59
2023/05/03 06:05:07;;;;;;;3.15;2.70;;;16.10;1.00;;;;;;5025139;28;20022;-59
2023/05/03 06:07:32;;;;;;;3.92;3.00;;;16.10;1.00;;;;;;5033934;28;20028;-59
2023/05/03 06:09:58;;;;;;;4.60;3.28;;;16.20;1.00;;;;;;5033054;28;20025;-59
2023/05/03 06:12:24;;;;;;;5.25;3.55;;;16.20;1.00;;;;;;5032573;28;20108;-59
2023/05/03 06:14:50;;;;;;;3.72;3.35;;;16.10;1.00;;;;;;5033647;28;20039;-59
2023/05/03 06:17:16;;;;;;;3.55;3.25;;;16.20;1.00;;;;;;5033213;28;20034;-59
2023/05/03 06:19:41;;;;;;;5.55;3.67;;;16.20;1.00;;;;;;5034436;28;20029;-59
2023/05/03 06:22:07;;;;;;;4.57;3.20;;;16.20;1.00;;;;;;5031929;28;20025;-59
2023/05/03 06:24:33;;;;;;;3.80;3.40;;;16.20;1.00;;;;;;5034439;28;20120;-59
2023/05/03 06:26:59;;;;;;;4.20;3.67;;;16.30;1.00;;;;;;5032072;28;20018;-59
2023/05/03 06:29:25;;;;;;;4.60;3.70;;;16.30;1.00;;;;;;5032640;28;20032;-59
2023/05/03 06:31:51;;;;;;;4.82;3.72;;;16.30;1.00;;;;;;5032769;28;20037;-59
2023/05/03 06:34:20;;;;;;;6.50;3.67;;;16.30;1.00;;;;;;5034547;28;20494;-59
2023/05/03 06:36:46;;;;;;;4.88;4.05;;;16.30;1.00;;;;;;5033564;28;20017;-59
2023/05/03 06:39:12;;;;;;;11.10;4.50;;;16.40;1.00;;;;;;5033712;28;20395;-59
2023/05/03 06:41:37;;;;;;;7.03;3.78;;;16.40;1.00;;;;;;5032653;28;20036;-59
2023/05/03 06:44:03;;;;;;;4.95;3.25;;;16.50;1.00;;;;;;5034087;28;20595;-59
2023/05/03 06:46:29;;;;;;;4.38;3.47;;;16.50;1.00;;;;;;5033646;28;20021;-59
2023/05/03 06:48:56;;;;;;;3.00;2.70;;;16.50;1.00;;;;;;5032729;28;20076;-59
2023/05/03 06:51:31;;;;;;;3.95;3.05;;;16.50;1.00;;;;;;5033071;28;20501;-59
2023/05/03 06:53:59;;;;;;;;;;;16.50;1.00;;;;;;5034350;28;20098;-59
2023/05/03 06:56:25;;;;;;;3.80;3.50;;;16.40;1.00;;;;;;5033162;28;20433;-59
2023/05/03 06:58:52;;;;;;;4.90;3.60;;;16.50;1.00;;;;;;5033743;28;20040;-59
2023/05/03 07:01:19;;;;;;;3.67;3.25;;;16.50;1.00;;;;;;5031940;28;20471;-59
2023/05/03 07:03:45;;;;;;;4.43;4.03;;;16.50;1.00;;;;;;5033451;28;20116;-59
2023/05/03 07:06:11;;;;;;;4.53;4.13;;;16.50;1.00;;;;;;5032992;28;20483;-59
2023/05/03 07:08:37;;;;;;;4.60;4.00;;;16.50;1.00;;;;;;5031160;28;20026;-59
2023/05/03 07:11:03;;;;;;;3.78;3.45;;;16.50;1.00;;;;;;5031274;28;20036;-59
2023/05/03 07:13:29;;;;;;;4.57;3.80;;;16.50;1.00;;;;;;5033515;28;20062;-59
2023/05/03 07:15:55;;;;;;;5.07;4.50;;;16.50;1.00;;;;;;5031333;28;20120;-59
2023/05/03 07:18:21;;;;;;;5.40;4.60;;;16.60;1.00;;;;;;5028177;28;20481;-59
2023/05/03 07:20:47;;;;;;;5.38;4.38;;;16.60;1.00;;;;;;5035213;28;20025;-59
2023/05/03 07:23:14;;;;;;;4.43;3.70;;;16.70;1.00;;;;;;5032818;28;20064;-60
2023/05/03 07:25:40;;;;;;;5.22;3.90;;;16.70;1.00;;;;;;5033299;28;20129;-59
2023/05/03 07:28:06;;;;;;;6.13;4.13;;;16.80;1.00;;;;;;5030757;28;20033;-60
2023/05/03 07:30:31;;;;;;;7.00;4.38;;;16.90;1.00;;;;;;5032269;28;20391;-59
2023/05/03 07:32:57;;;;;;;4.70;4.30;;;16.80;1.00;;;;;;5031181;28;20029;-59
2023/05/03 07:35:23;;;;;;;9.30;4.88;;;16.90;1.00;;;;;;5028773;28;20034;-59
2023/05/03 07:37:48;;;;;;;5.35;3.72;;;17.00;1.00;;;;;;5031853;28;20041;-59
2023/05/03 07:40:14;;;;;;;4.57;4.15;;;17.00;1.00;;;;;;5038157;28;20182;-63
2023/05/03 07:42:40;;;;;;;7.18;5.30;;;17.10;1.00;;;;;;5043791;28;20041;-65
2023/05/03 07:45:06;;;;;;;4.97;4.47;;;17.20;1.00;;;;;;5036536;28;20120;-65
2023/05/03 07:47:36;;;;;;;6.50;4.28;;;17.20;1.00;;;;;;5042412;28;20351;-65
2023/05/03 07:50:03;;;;;;;5.43;4.35;;;17.20;1.00;;;;;;5041649;28;20032;-65
2023/05/03 07:52:29;;;;;;;5.60;5.05;;;17.20;1.00;;;;;;5050288;28;20032;-66
2023/05/03 07:54:55;;;;;;;5.82;4.30;;;17.20;1.00;;;;;;5045224;28;20021;-65
2023/05/03 07:57:22;;;;;;;5.32;4.50;;;17.10;1.00;;;;;;5044237;28;20048;-65
2023/05/03 07:59:48;;;;;;;4.72;4.28;;;17.20;1.00;;;;;;5048615;28;20025;-65
2023/05/03 08:02:13;;;;;;;5.88;3.85;;;17.10;1.00;;;;;;5037943;28;20473;-65
2023/05/03 08:04:39;;;;;;;4.95;4.35;;;17.10;1.00;;;;;;5048401;28;20273;-65
2023/05/03 08:07:05;;;;;;;5.35;4.85;;;17.20;1.00;;;;;;5049037;28;20408;-65
2023/05/03 08:09:31;;;;;;;5.30;4.80;;;17.30;1.00;;;;;;5040652;28;20049;-65
2023/05/03 08:11:56;;;;;;;5.90;4.95;;;17.40;1.00;;;;;;5047550;28;20083;-65
2023/05/03 08:14:22;;;;;;;7.03;5.07;;;17.40;1.00;;;;;;5046023;28;20068;-64
2023/05/03 08:16:48;;;;;;;7.05;5.20;;;17.40;1.00;;;;;;5043714;28;20032;-64
2023/05/03 08:19:14;;;;;;;4.35;3.95;;;17.40;1.00;;;;;;5044770;28;20030;-64
2023/05/03 08:21:39;;;;;;;12.38;5.50;;;17.50;1.00;;;;;;5042453;28;20021;-65
2023/05/03 08:24:07;;;;;;;5.68;4.40;;;17.50;1.00;;;;;;5047785;28;20043;-65
2023/05/03 08:26:33;;;;;;;6.95;5.50;;;17.50;1.00;;;;;;5051117;28;20078;-65
2023/05/03 08:29:01;;;;;;;5.25;4.78;;;17.50;1.00;;;;;;5047104;28;20034;-66
2023/05/03 08:31:27;;;;;;;10.48;5.55;;;17.60;1.00;;;;;;5050587;28;20041;-66
2023/05/03 08:33:52;;;;;;;6.03;5.43;;;17.60;1.00;;;;;;5038050;28;20484;-66
2023/05/03 08:36:18;;;;;;;5.28;4.78;;;17.80;1.00;;;;;;5036883;28;20518;-65
2023/05/03 08:38:44;;;;;;;5.10;4.63;;;17.80;1.00;;;;;;5038270;28;20049;-65
2023/05/03 08:41:30;;;;;;;4.88;4.38;;;17.60;1.00;;;;;;5036875;28;20061;-65
2023/05/03 08:43:57;;;;;;;4.90;4.18;;;17.80;1.00;;;;;;5037919;28;20037;-64
2023/05/03 08:46:26;;;;;;;5.88;4.35;;;17.80;1.00;;;;;;5039693;28;20026;-65
2023/05/03 08:48:52;;;;;;;5.90;4.20;;;17.80;1.00;;;;;;5042280;28;20079;-65
2023/05/03 08:51:20;;;;;;;4.25;3.85;;;17.80;1.00;;;;;;5041245;28;20502;-64
2023/05/03 08:53:46;;;;;;;4.20;3.83;;;17.90;1.00;;;;;;5047883;28;20549;-64
2023/05/03 08:56:22;;;;;;;5.70;5.10;;;18.00;1.00;;;;;;5026369;28;20030;-64
2023/05/03 08:58:48;;;;;;;5.05;4.00;;;18.20;1.00;;;;;;5023567;28;20037;-64
2023/05/03 09:01:13;;;;;;;4.53;4.13;;;18.30;1.00;;;;;;5027142;28;20424;-67
2023/05/03 09:03:39;;;;;;;4.72;4.15;;;18.50;1.00;;;;;;5034647;28;20057;-68
2023/05/03 09:06:20;;;;;;;5.18;4.68;;;18.80;1.00;;;;;;5042871;28;20024;-74
2023/05/03 09:08:45;;;;;;;5.03;4.55;;;18.90;1.00;;;;;;5039533;28;20029;-64
2023/05/03 09:11:28;;;;;;;4.25;3.85;;;19.00;1.00;;;;;;5048575;28;20041;-65
2023/05/03 09:14:07;;;;;;;4.05;3.72;;;19.10;1.00;;;;;;5050185;28;20096;-65
2023/05/03 09:16:33;;;;;;;5.22;4.32;;;19.20;1.00;;;;;;5045129;28;20049;-67
2023/05/03 09:19:01;;;;;;;4.20;3.80;;;19.30;1.00;;;;;;5051782;28;20063;-65
2023/05/03 09:21:33;;;;;;;4.53;4.13;;;19.30;1.00;;;;;;5052011;28;20017;-64
2023/05/03 09:23:58;;;;;;;3.88;3.58;;;19.40;1.00;;;;;;5044144;28;20033;-64
2023/05/03 09:26:32;;;;;;;5.30;4.28;;;19.40;1.00;;;;;;5044393;28;20021;-64
2023/05/03 09:29:00;;;;;;;5.32;4.45;;;19.60;1.00;;;;;;5049280;28;20352;-65
2023/05/03 09:31:27;;;;;;;5.38;4.10;;;19.70;1.00;;;;;;5034485;28;20034;-65
2023/05/03 09:33:53;;;;;;;4.70;3.75;;;19.70;1.00;;;;;;5037189;28;20125;-65
2023/05/03 09:36:18;;;;;;;6.85;4.22;;;19.80;1.00;;;;;;5032236;28;20108;-56
2023/05/03 09:38:44;;;;;;;4.20;3.80;;;20.00;1.00;;;;;;5026965;28;20159;-62
2023/05/03 09:41:10;;;;;;;4.97;3.95;;;20.10;1.00;;;;;;5033523;28;20479;-62
2023/05/03 09:43:51;;;;;;;6.45;4.88;;;20.30;1.00;;;;;;5034508;28;20025;-62
2023/05/03 09:46:17;;;;;;;7.72;4.63;;;20.30;1.00;;;;;;5033777;28;20483;-71
2023/05/03 09:48:43;;;;;;;6.38;4.70;;;20.20;1.00;;;;;;5035123;28;20411;-65
2023/05/03 09:51:10;;;;;;;4.85;4.45;;;20.20;1.00;;;;;;5034383;28;20029;-64
2023/05/03 09:53:37;;;;;;;6.57;5.53;;;20.20;1.00;;;;;;5035065;28;20558;-65
2023/05/03 09:56:07;;;;;;;7.60;4.78;;;20.30;1.00;;;;;;5034586;28;20029;-64
2023/05/03 09:58:34;;;;;;;4.85;4.18;;;20.30;1.00;;;;;;5034603;28;20034;-64
2023/05/03 10:01:00;;;;;;;5.25;4.65;;;20.50;1.00;;;;;;5032390;28;20041;-64
2023/05/03 10:03:49;;;;;;;3.97;3.58;;;20.40;1.00;;;;;;5034903;28;20025;-64
2023/05/03 10:06:29;;;;;;;3.63;3.33;;;20.50;1.00;;;;;;5033540;28;20025;-64
2023/05/03 10:08:58;;;;;;;4.45;3.20;;;20.60;1.00;;;;;;5032950;28;20071;-63
2023/05/03 10:11:26;;;;;;;3.60;3.30;;;20.80;1.00;;;;;;5033666;28;20026;-64
2023/05/03 10:13:53;;;;;;;4.60;4.22;;;20.90;1.00;;;;;;5028492;28;20029;-64
2023/05/03 10:16:30;;;;;;;9.05;4.25;;;20.80;1.00;;;;;;5034076;28;20009;-64
2023/05/03 10:19:22;;;;;;;4.13;3.72;;;20.70;1.00;;;;;;5034366;28;20037;-64
2023/05/03 10:21:58;;;;;;;3.00;2.78;;;20.60;1.00;;;;;;5038387;28;20045;-64
2023/05/03 10:24:24;;;;;;;3.53;3.22;;;20.70;1.00;;;;;;5030138;28;20024;-64
2023/05/03 10:26:50;;;;;;;4.18;3.25;;;20.80;1.00;;;;;;5029589;28;20041;-64
2023/05/03 10:29:44;;;;;;;3.85;3.55;;;20.80;1.00;;;;;;5032369;28;20033;-64
2023/05/03 10:32:38;;;;;;;3.70;3.35;;;20.80;1.00;;;;;;5030791;28;20029;-64
2023/05/03 10:35:14;;;;;;;2.70;2.50;;;21.00;1.00;;;;;;5034621;28;20041;-64
2023/05/03 10:37:41;;;;;;;4.45;3.72;;;21.10;1.00;;;;;;5027362;28;20021;-64
2023/05/03 10:40:17;;;;;;;5.30;4.80;;;21.10;1.00;;;;;;5033309;28;20045;-64
2023/05/03 10:42:53;;;;;;;4.60;3.75;;;21.20;1.00;;;;;;5030717;28;20487;-64
2023/05/03 10:45:28;;;;;;;5.47;3.75;;;21.10;1.00;;;;;;5033986;28;20029;-64
2023/05/03 10:48:11;;;;;;;5.43;3.20;;;21.10;1.00;;;;;;5030652;28;20510;-64
2023/05/03 10:50:41;;;;;;;3.33;3.00;;;21.10;1.00;;;;;;5033862;28;20037;-64
2023/05/03 10:53:07;;;;;;;5.55;3.10;;;21.20;1.00;;;;;;5032566;28;20028;-64
2023/05/03 10:55:33;;;;;;;3.85;3.17;;;21.20;1.00;;;;;;5030688;28;20581;-63
2023/05/03 10:58:00;;;;;;;4.53;4.22;;;21.20;1.00;;;;;;5033279;28;20040;-64
2023/05/03 11:00:40;;;;;;;4.35;3.90;;;21.20;1.00;;;;;;5033816;28;20055;-63
2023/05/03 11:03:17;;;;;;;4.25;3.95;;;21.10;1.00;;;;;;5020597;28;20372;-64
2023/05/03 11:05:43;;;;;;;4.30;4.00;;;21.30;1.00;;;;;;5031466;28;20068;-65
2023/05/03 11:08:17;;;;;;;3.47;3.17;;;21.30;1.00;;;;;;5034015;28;20092;-63
2023/05/03 11:10:48;;;;;;;3.25;3.00;;;21.50;1.00;;;;;;5032038;28;20064;-63
2023/05/03 11:13:14;;;;;;;4.20;3.80;;;21.70;1.00;;;;;;5019990;28;20029;-63
2023/05/03 11:15:41;;;;;;;4.32;3.53;;;21.60;1.00;;;;;;5032741;28;20029;-63
2023/05/03 11:18:08;;;;;;;3.13;2.92;;;21.50;1.00;;;;;;5033370;28;20068;-63
2023/05/03 11:20:35;;;;;;;3.70;3.40;;;21.70;1.00;;;;;;5030741;28;20108;-63
2023/05/03 11:23:01;;;;;;;4.38;4.00;;;22.10;1.00;;;;;;5033560;28;20111;-64
2023/05/03 11:25:27;;;;;;;4.43;4.03;;;22.30;1.00;;;;;;5032438;28;20503;-64
2023/05/03 11:27:53;;;;;;;4.00;3.58;;;22.00;1.00;;;;;;5033239;28;20040;-64
2023/05/03 11:30:19;;;;;;;3.78;3.47;;;22.40;1.00;;;;;;5031270;28;20387;-65
2023/05/03 11:32:44;;;;;;;3.90;3.60;;;22.70;1.00;;;;;;5033246;28;20029;-63
2023/05/03 11:35:16;;;;;;;5.22;4.55;;;22.80;1.00;;;;;;5031998;28;20040;-66
2023/05/03 11:37:43;;;;;;;6.32;4.65;;;22.70;1.00;;;;;;5032333;28;20389;-65
2023/05/03 11:40:17;;;;;;;5.00;4.50;;;22.70;1.00;;;;;;5031630;28;20049;-62
2023/05/03 11:42:57;;;;;;;4.38;3.92;;;23.30;1.00;;;;;;5033437;28;20443;-62
2023/05/03 11:45:25;;;;;;;4.38;4.07;;;23.90;1.00;;;;;;5032685;28;20045;-63
2023/05/03 11:47:52;;;;;;;3.60;3.30;;;24.70;1.00;;;;;;5032964;28;20037;-64
2023/05/03 11:50:25;;;;;;;5.03;4.22;;;25.90;1.00;;;;;;5032115;28;20083;-62
2023/05/03 11:52:51;;;;;;;5.05;4.65;;;27.40;1.00;;;;;;5028687;28;20036;-63
2023/05/03 11:55:17;;;;;;;4.40;4.03;;;30.50;1.00;;;;;;5033007;28;20112;-63
2023/05/03 11:57:43;;;;;;;5.80;4.60;;;29.80;1.00;;;;;;5031022;28;20531;-63
2023/05/03 12:00:16;;;;;;;5.65;5.18;;;29.70;1.00;;;;;;5032055;28;20053;-64
2023/05/03 12:02:43;;;;;;;5.45;4.97;;;31.40;1.00;;;;;;5033009;28;20032;-63
2023/05/03 12:05:09;;;;;;;5.55;5.15;;;31.20;1.00;;;;;;5032164;28;20040;-63
2023/05/03 12:07:38;;;;;;;5.18;4.68;;;35.50;1.00;;;;;;5032714;28;20398;-63
2023/05/03 12:10:17;;;;;;;5.85;5.07;;;36.50;1.00;;;;;;5031823;28;20053;-64
2023/05/03 12:12:56;;;;;;;5.05;4.65;;;36.30;99.90;;;;;;5031849;28;20041;-64
2023/05/03 12:15:33;;;;;;;4.30;3.45;;;38.20;99.90;;;;;;5032136;28;20030;-64
2023/05/03 12:18:00;;;;;;;4.13;3.83;;;40.40;99.90;;;;;;5031675;28;20026;-64
2023/05/03 12:20:29;;;;;;;5.25;4.85;;;41.90;99.90;;;;;;5041435;28;20025;-64
2023/05/03 12:23:00;;;;;;;5.40;5.00;;;42.30;99.90;;;;;;5066963;28;20025;-64
2023/05/03 12:25:27;;;;;;;5.60;5.18;;;42.30;99.90;;;;;;5032961;28;20029;-64
2023/05/03 12:27:53;;;;;;;5.22;4.93;;;37.40;99.90;;;;;;5035884;28;20512;-63
2023/05/03 12:30:20;;;;;;;5.78;5.28;;;33.60;99.90;;;;;;5034382;28;20395;-63
2023/05/03 12:32:46;;;;;;;6.00;5.50;;;31.20;99.90;;;;;;5020097;28;20402;-64
2023/05/03 12:35:12;;;;;;;5.15;4.85;;;29.50;1.00;;;;;;5045062;28;20104;-62
2023/05/03 12:37:37;;;;;;;6.07;5.63;;;28.40;1.00;;;;;;5047092;28;20110;-62
2023/05/03 12:40:04;;;;;;;5.85;5.45;;;27.30;1.00;;;;;;5044629;28;20222;-61
2023/05/03 12:42:30;;;;;;;5.75;5.35;;;26.60;1.00;;;;;;5043669;28;20478;-62
2023/05/03 12:44:57;;;;;;;5.18;4.78;;;26.20;1.00;;;;;;5039522;28;20082;-62
2023/05/03 12:47:23;;;;;;;5.32;4.93;;;25.90;1.00;;;;;;5042829;28;20104;-61
2023/05/03 12:49:48;;;;;;;5.88;5.43;;;25.60;1.00;;;;;;5042320;28;20108;-63
2023/05/03 12:52:15;;;;;;;5.53;5.07;;;25.80;1.00;;;;;;5049999;28;20033;-63
2023/05/03 12:54:40;;;;;;;5.18;4.68;;;27.10;1.00;;;;;;5050573;28;20025;-63
2023/05/03 12:57:08;;;;;;;5.53;5.13;;;33.00;1.00;;;;;;5052709;28;20429;-62
2023/05/03 12:59:36;;;;;;;4.32;4.03;;;36.20;99.90;;;;;;5049043;28;20072;-63
2023/05/03 13:02:02;;;;;;;5.45;4.15;;;37.70;99.90;;;;;;5034807;28;20036;-63